Time;durP1;ratioP1;P1;durP2;ratioP2;P2;SDS_P1;SDS_P2;PMS_P1;PMS_P2;Temp;Humidity;BMP_temperature;BMP_pressure;BME280_temperature;BME280_humidity;BME280_pressure;Samples;Min_cycle;Max_cycle;Signal;HPM_P1;HPM_P2
2022/12/16 00:00:16;;;;;;;32.30;13.73;;;;;;;-12.20;100.00;97798.38;4220086;28;20066;-73
2022/12/16 00:02:16;;;;;;;29.67;13.65;;;;;;;-12.16;100.00;97803.19;4215906;27;20028;-73
2022/12/16 00:04:16;;;;;;;40.63;14.48;;;;;;;-12.22;100.00;97794.34;4219977;27;20084;-73
2022/12/16 00:06:17;;;;;;;35.75;15.70;;;;;;;-12.28;100.00;97798.00;4220790;28;20381;-73
2022/12/16 00:08:18;;;;;;;30.77;14.57;;;;;;;-12.33;100.00;97800.59;4220482;27;21560;-73
2022/12/16 00:10:18;;;;;;;34.47;15.73;;;;;;;-12.27;100.00;97802.28;4218880;28;20035;-73
2022/12/16 00:12:18;;;;;;;28.35;15.75;;;;;;;-12.21;100.00;97803.94;4219805;28;20487;-73
2022/12/16 00:14:19;;;;;;;33.83;15.10;;;;;;;-12.20;100.00;97802.91;4219160;28;20027;-73
2022/12/16 00:16:20;;;;;;;38.13;16.20;;;;;;;-12.30;100.00;97803.56;4218159;28;20032;-73
2022/12/16 00:18:21;;;;;;;34.97;14.63;;;;;;;-12.27;100.00;97792.41;4220730;28;20050;-73
2022/12/16 00:20:21;;;;;;;29.38;15.07;;;;;;;-12.32;100.00;97795.03;4221084;27;20039;-73
2022/12/16 00:22:22;;;;;;;41.70;15.20;;;;;;;-12.36;100.00;97793.09;4221765;28;20136;-73
2022/12/16 00:24:22;;;;;;;32.60;14.35;;;;;;;-12.41;100.00;97801.84;4219850;27;20043;-73
2022/12/16 00:26:23;;;;;;;31.63;13.63;;;;;;;-12.49;100.00;97792.41;4221225;28;20039;-73
2022/12/16 00:28:23;;;;;;;31.05;14.48;;;;;;;-12.61;100.00;97790.91;4221883;28;20043;-73
2022/12/16 00:30:24;;;;;;;28.52;14.77;;;;;;;-12.57;100.00;97798.16;4219717;27;20356;-73
2022/12/16 00:32:24;;;;;;;35.03;13.75;;;;;;;-12.68;100.00;97787.59;4221235;28;20122;-73
2022/12/16 00:34:24;;;;;;;29.10;14.75;;;;;;;-12.77;100.00;97804.00;4221250;27;20066;-73
2022/12/16 00:36:25;;;;;;;31.58;13.80;;;;;;;-12.90;100.00;97793.72;4220039;27;20085;-73
2022/12/16 00:38:26;;;;;;;29.73;14.00;;;;;;;-12.76;100.00;97796.81;4221000;28;20388;-73
2022/12/16 00:40:26;;;;;;;28.13;13.50;;;;;;;-12.92;100.00;97790.47;4220081;28;20047;-73
2022/12/16 00:42:27;;;;;;;32.40;12.77;;;;;;;-13.00;100.00;97798.06;4220527;28;20380;-73
2022/12/16 00:44:27;;;;;;;27.30;12.27;;;;;;;-13.10;100.00;97786.19;4218784;28;20256;-73
2022/12/16 00:46:27;;;;;;;23.50;11.95;;;;;;;-13.10;100.00;97785.41;4221029;27;20161;-73
2022/12/16 00:48:28;;;;;;;26.50;11.55;;;;;;;-13.23;100.00;97780.44;4220859;28;20047;-73
2022/12/16 00:50:28;;;;;;;25.13;11.75;;;;;;;-13.25;100.00;97778.00;4218929;27;20379;-73
2022/12/16 00:52:29;;;;;;;20.30;10.35;;;;;;;-13.29;100.00;97778.75;4220191;27;20042;-73
2022/12/16 00:54:29;;;;;;;29.30;11.02;;;;;;;-13.37;100.00;97772.78;4220268;27;20456;-73
2022/12/16 00:56:29;;;;;;;22.50;10.23;;;;;;;-13.38;100.00;97781.81;4220126;28;20071;-73
2022/12/16 00:58:30;;;;;;;18.08;8.60;;;;;;;-13.38;100.00;97776.47;4220764;28;20074;-73
2022/12/16 01:00:30;;;;;;;22.10;9.80;;;;;;;-13.32;100.00;97777.34;4219926;27;20048;-73
2022/12/16 01:02:31;;;;;;;18.90;10.07;;;;;;;-13.34;100.00;97776.78;4220498;27;20498;-73
2022/12/16 01:04:31;;;;;;;22.35;9.55;;;;;;;-13.37;100.00;97772.78;4221061;28;20391;-73
2022/12/16 01:06:32;;;;;;;18.00;8.73;;;;;;;-13.38;100.00;97776.47;4218295;28;20038;-73
2022/12/16 01:08:32;;;;;;;17.85;9.80;;;;;;;-13.46;100.00;97776.88;4218374;28;20047;-73
2022/12/16 01:10:32;;;;;;;19.75;9.52;;;;;;;-13.46;100.00;97784.06;4219287;28;20044;-73
2022/12/16 01:12:34;;;;;;;19.45;8.80;;;;;;;-13.30;100.00;97783.25;4219047;27;20036;-73
2022/12/16 01:14:34;;;;;;;22.08;10.75;;;;;;;-13.16;100.00;97789.03;4219178;28;20044;-73
2022/12/16 01:16:34;;;;;;;22.75;10.27;;;;;;;-13.10;100.00;97788.88;4220757;27;20734;-73
2022/12/16 01:18:35;;;;;;;19.38;10.18;;;;;;;-12.95;100.00;97790.97;4220064;28;20697;-73
2022/12/16 01:20:37;;;;;;;23.55;10.63;;;;;;;-12.87;100.00;97777.22;4220086;27;20031;-73
2022/12/16 01:22:37;;;;;;;20.60;10.10;;;;;;;-12.85;100.00;97788.44;4219855;28;20535;-73
2022/12/16 01:24:38;;;;;;;18.98;9.98;;;;;;;-12.84;100.00;97789.25;4218402;28;20393;-73
2022/12/16 01:26:38;;;;;;;25.05;10.15;;;;;;;-12.88;100.00;97790.78;4221943;27;20476;-73
2022/12/16 01:28:38;;;;;;;18.52;9.63;;;;;;;-13.05;100.00;97786.28;4217969;27;20044;-73
2022/12/16 01:30:39;;;;;;;22.65;9.85;;;;;;;-13.02;100.00;97797.50;4220076;28;20063;-73
2022/12/16 01:32:39;;;;;;;20.58;9.25;;;;;;;-13.11;100.00;97792.56;4218539;27;20346;-73
2022/12/16 01:34:39;;;;;;;21.95;9.93;;;;;;;-13.16;100.00;97794.34;4218749;27;20079;-73
2022/12/16 01:36:40;;;;;;;22.83;9.05;;;;;;;-13.19;100.00;97797.53;4219516;28;20101;-73
2022/12/16 01:38:43;;;;;;;24.52;9.52;;;;;;;-13.26;100.00;97799.53;4219464;27;20151;-73
2022/12/16 01:40:43;;;;;;;23.75;11.15;;;;;;;-13.40;100.00;97802.53;4220130;28;20083;-73
2022/12/16 01:42:44;;;;;;;23.40;11.43;;;;;;;-13.47;100.00;97801.88;4219509;27;20048;-73
2022/12/16 01:44:47;;;;;;;17.52;8.40;;;;;;;-13.48;100.00;97807.44;4219432;28;20104;-73
2022/12/16 01:46:58;;;;;;;19.00;10.25;;;;;;;-13.55;100.00;97798.81;4219304;27;20101;-73
2022/12/16 01:49:02;;;;;;;19.20;10.00;;;;;;;-13.44;100.00;97808.56;4218766;27;20036;-73
2022/12/16 01:51:20;;;;;;;21.20;10.52;;;;;;;-13.50;100.00;97812.19;4220298;27;20305;-73
2022/12/16 01:53:20;;;;;;;26.35;10.50;;;;;;;-13.61;100.00;97812.00;4217982;27;20421;-73
2022/12/16 01:55:27;;;;;;;19.08;9.07;;;;;;;-13.63;100.00;97805.31;4218400;27;20059;-73
2022/12/16 01:57:39;;;;;;;22.95;9.32;;;;;;;-13.65;100.00;97804.72;4220311;27;20043;-73
2022/12/16 01:59:43;;;;;;;20.45;10.18;;;;;;;-13.74;100.00;97803.50;4219316;28;20488;-73
2022/12/16 02:01:44;;;;;;;22.23;9.15;;;;;;;-13.77;100.00;97802.16;4218792;27;20240;-73
2022/12/16 02:03:45;;;;;;;24.35;9.68;;;;;;;-13.81;100.00;97806.34;4216782;27;20088;-73
2022/12/16 02:05:46;;;;;;;19.10;10.20;;;;;;;-13.83;100.00;97796.97;4218738;28;20135;-73
2022/12/16 02:07:58;;;;;;;22.10;10.50;;;;;;;-13.86;100.00;97797.44;4220054;27;20040;-73
2022/12/16 02:09:59;;;;;;;24.50;10.27;;;;;;;-13.88;100.00;97786.25;4218327;28;20183;-74
2022/12/16 02:12:05;;;;;;;28.52;10.43;;;;;;;-13.91;100.00;97798.16;4219293;27;20062;-74
2022/12/16 02:14:24;;;;;;;27.88;11.07;;;;;;;-13.73;100.00;97800.63;4217419;28;20055;-74
2022/12/16 02:16:57;;;;;;;19.98;10.38;;;;;;;-13.52;100.00;97799.13;4219264;27;20222;-74
2022/12/16 02:19:23;;;;;;;21.73;10.45;;;;;;;-13.40;100.00;97802.53;4192060;28;20063;-74
2022/12/16 02:21:47;;;;;;;22.60;9.05;;;;;;;-13.25;100.00;97801.97;4218801;27;20134;-73
2022/12/16 02:23:51;;;;;;;20.10;9.45;;;;;;;-13.34;100.00;97804.22;4218145;27;20054;-73
2022/12/16 02:25:54;;;;;;;20.42;9.10;;;;;;;-13.28;100.00;97805.13;4218161;28;20048;-73
2022/12/16 02:28:10;;;;;;;24.90;10.90;;;;;;;-13.27;100.00;97803.25;4219439;27;20043;-73
2022/12/16 02:30:35;;;;;;;27.80;11.07;;;;;;;-13.25;100.00;97803.81;4218101;28;20054;-73
2022/12/16 02:33:07;;;;;;;22.30;10.65;;;;;;;-13.34;100.00;97804.22;4218178;28;20631;-73
2022/12/16 02:35:23;;;;;;;18.60;9.65;;;;;;;-13.48;100.00;97802.13;4218554;27;20092;-73
2022/12/16 02:37:29;;;;;;;25.58;9.77;;;;;;;-13.46;100.00;97803.50;4219367;27;20385;-73
2022/12/16 02:39:37;;;;;;;27.50;10.07;;;;;;;-13.39;100.00;97806.00;4218456;28;20105;-73
2022/12/16 02:41:53;;;;;;;22.38;10.32;;;;;;;-13.31;100.00;97805.59;4219747;28;20126;-73
2022/12/16 02:44:02;;;;;;;23.23;10.50;;;;;;;-13.20;100.00;97807.38;4218152;28;20350;-74
2022/12/16 02:46:05;;;;;;;20.63;9.23;;;;;;;-13.15;100.00;97801.31;4216905;27;20798;-73
2022/12/16 02:48:06;;;;;;;20.65;9.88;;;;;;;-13.11;100.00;97808.56;4219311;28;20074;-73
2022/12/16 02:50:27;;;;;;;24.67;10.43;;;;;;;-13.07;100.00;97803.56;4218626;28;20043;-73
2022/12/16 02:52:33;;;;;;;24.35;10.38;;;;;;;-13.17;100.00;97798.88;4218622;28;20048;-73
2022/12/16 02:54:33;;;;;;;23.30;8.73;;;;;;;-13.16;100.00;97805.81;4218621;27;20047;-73
2022/12/16 02:56:36;;;;;;;21.17;11.00;;;;;;;-13.18;100.00;97817.75;4217754;28;20492;-73
2022/12/16 02:59:06;;;;;;;19.42;9.75;;;;;;;-13.14;100.00;97811.72;4219199;27;20130;-73
2022/12/16 03:01:09;;;;;;;19.92;8.88;;;;;;;-13.21;100.00;97815.63;4214526;27;20490;-73
2022/12/16 03:03:22;;;;;;;21.10;10.60;;;;;;;-13.18;100.00;97823.06;4218736;27;20054;-73
2022/12/16 03:05:26;;;;;;;24.48;9.88;;;;;;;-13.25;100.00;97820.59;4218256;27;20079;-73
2022/12/16 03:07:32;;;;;;;20.27;10.13;;;;;;;-13.39;100.00;97822.78;4218302;28;20083;-73
2022/12/16 03:09:36;;;;;;;21.85;9.93;;;;;;;-13.42;100.00;97817.13;4219818;28;20154;-73
2022/12/16 03:11:41;;;;;;;23.30;11.90;;;;;;;-13.43;100.00;97818.97;4215120;28;20050;-73
2022/12/16 03:13:48;;;;;;;19.80;10.38;;;;;;;-13.48;100.00;97810.91;4214571;28;20538;-73
2022/12/16 03:15:54;;;;;;;26.08;11.73;;;;;;;-13.54;100.00;97811.06;4217817;28;20035;-73
2022/12/16 03:17:56;;;;;;;26.20;10.63;;;;;;;-13.58;100.00;97804.59;4217433;27;20074;-73
2022/12/16 03:20:20;;;;;;;21.00;10.27;;;;;;;-13.42;100.00;97811.78;4217100;27;20061;-73
2022/12/16 03:22:26;;;;;;;23.77;9.18;;;;;;;-13.47;100.00;97807.22;4222268;28;20048;-73
2022/12/16 03:24:28;;;;;;;25.95;11.73;;;;;;;-13.41;100.00;97802.75;4221048;27;20332;-73
2022/12/16 03:26:58;;;;;;;20.30;9.60;;;;;;;-13.30;100.00;97803.75;4222954;28;20040;-73
2022/12/16 03:29:39;;;;;;;22.77;10.65;;;;;;;-13.33;100.00;97810.34;4220214;27;20394;-73
2022/12/16 03:31:55;;;;;;;17.50;9.23;;;;;;;-13.28;100.00;97812.28;4221846;28;20040;-73
2022/12/16 03:34:04;;;;;;;27.77;12.75;;;;;;;-13.36;100.00;97806.31;4220147;28;20062;-73
2022/12/16 03:36:11;;;;;;;23.08;9.70;;;;;;;-13.29;100.00;97816.00;4222127;28;20043;-73
2022/12/16 03:38:13;;;;;;;26.15;10.98;;;;;;;-13.27;100.00;97804.06;4221945;27;20188;-73
2022/12/16 03:40:14;;;;;;;24.70;11.85;;;;;;;-13.14;100.00;97824.22;4222644;28;20496;-73
2022/12/16 03:42:15;;;;;;;23.52;10.88;;;;;;;-13.16;100.00;97820.97;4222210;28;20031;-73
2022/12/16 03:44:17;;;;;;;26.83;12.32;;;;;;;-13.07;100.00;97828.34;4221847;28;20379;-73
2022/12/16 03:46:17;;;;;;;32.60;11.75;;;;;;;-13.02;100.00;97824.13;4221443;28;20031;-73
2022/12/16 03:48:22;;;;;;;23.50;11.35;;;;;;;-13.00;100.00;97811.38;4220799;27;20367;-73
2022/12/16 03:50:28;;;;;;;26.92;12.25;;;;;;;-13.09;100.00;97821.63;4222461;27;20750;-73
2022/12/16 03:52:29;;;;;;;25.58;11.57;;;;;;;-13.15;100.00;97827.94;4222360;27;20086;-73
2022/12/16 03:54:29;;;;;;;24.52;11.70;;;;;;;-13.26;100.00;97832.28;4220865;27;20455;-73
2022/12/16 03:56:29;;;;;;;23.63;12.43;;;;;;;-13.15;100.00;97830.59;4222047;28;20060;-73
2022/12/16 03:58:30;;;;;;;24.23;12.57;;;;;;;-13.15;100.00;97833.25;4221626;27;20391;-73
2022/12/16 04:00:30;;;;;;;22.05;11.80;;;;;;;-13.13;100.00;97829.28;4222200;27;20047;-73
2022/12/16 04:02:30;;;;;;;33.05;12.52;;;;;;;-13.11;100.00;97835.19;4220922;27;20032;-73
2022/12/16 04:04:31;;;;;;;23.33;11.30;;;;;;;-13.05;100.00;97834.22;4220650;28;20044;-73
2022/12/16 04:06:31;;;;;;;27.48;12.80;;;;;;;-13.09;100.00;97834.94;4221399;28;20202;-73
2022/12/16 04:08:31;;;;;;;19.20;10.70;;;;;;;-13.08;100.00;97842.66;4220044;27;20040;-73
2022/12/16 04:24:18;;;;;;;19.67;10.02;;;;;;;-13.09;100.00;97843.72;4218072;27;20081;-73
2022/12/16 04:24:47;;;;;;;24.30;11.48;;;;;;;-13.41;100.00;97861.31;4215839;27;20051;-73
2022/12/16 04:29:06;;;;;;;25.80;10.70;;;;;;;-13.52;100.00;97860.31;4219069;28;20071;-73
2022/12/16 04:31:07;;;;;;;20.98;11.05;;;;;;;-13.64;100.00;97856.91;4218149;28;20048;-73
